sensor_id;sensor_type;location;lat;lon;timestamp;P1;durP1;ratioP1;P2;durP2;ratioP2
286;SDS011;127;48.770;9.212;2024-03-25T00:02:05;4.45;;;2.92;;
286;SDS011;127;48.770;9.212;2024-03-25T00:04:31;6.10;;;3.72;;
286;SDS011;127;48.770;9.212;2024-03-25T00:06:58;6.95;;;4.07;;
286;SDS011;127;48.770;9.212;2024-03-25T00:09:24;7.78;;;3.78;;
286;SDS011;127;48.770;9.212;2024-03-25T00:11:50;7.15;;;3.90;;
286;SDS011;127;48.770;9.212;2024-03-25T00:14:20;5.93;;;3.63;;
286;SDS011;127;48.770;9.212;2024-03-25T00:16:46;8.80;;;3.40;;
286;SDS011;127;48.770;9.212;2024-03-25T00:19:13;4.40;;;3.65;;
286;SDS011;127;48.770;9.212;2024-03-25T00:21:39;16.98;;;4.25;;
286;SDS011;127;48.770;9.212;2024-03-25T00:24:05;14.32;;;4.50;;
286;SDS011;127;48.770;9.212;2024-03-25T00:26:32;5.93;;;3.72;;
286;SDS011;127;48.770;9.212;2024-03-25T00:28:58;8.30;;;4.32;;
286;SDS011;127;48.770;9.212;2024-03-25T00:31:27;9.40;;;4.30;;
286;SDS011;127;48.770;9.212;2024-03-25T00:33:53;11.05;;;3.88;;
286;SDS011;127;48.770;9.212;2024-03-25T00:36:19;13.00;;;4.37;;
286;SDS011;127;48.770;9.212;2024-03-25T00:38:46;5.83;;;3.57;;
286;SDS011;127;48.770;9.212;2024-03-25T00:41:12;16.70;;;4.17;;
286;SDS011;127;48.770;9.212;2024-03-25T00:43:38;6.57;;;3.22;;
286;SDS011;127;48.770;9.212;2024-03-25T00:46:05;8.10;;;4.13;;
286;SDS011;127;48.770;9.212;2024-03-25T00:48:34;20.02;;;4.30;;
286;SDS011;127;48.770;9.212;2024-03-25T00:51:00;5.88;;;3.85;;
286;SDS011;127;48.770;9.212;2024-03-25T00:53:26;9.50;;;4.43;;
286;SDS011;127;48.770;9.212;2024-03-25T00:55:53;8.97;;;4.07;;
286;SDS011;127;48.770;9.212;2024-03-25T00:58:19;6.80;;;3.67;;
286;SDS011;127;48.770;9.212;2024-03-25T01:00:45;8.15;;;4.15;;
286;SDS011;127;48.770;9.212;2024-03-25T01:03:12;10.18;;;4.20;;
286;SDS011;127;48.770;9.212;2024-03-25T01:05:41;8.18;;;4.28;;
286;SDS011;127;48.770;9.212;2024-03-25T01:08:07;8.95;;;3.53;;
286;SDS011;127;48.770;9.212;2024-03-25T01:10:33;7.78;;;3.75;;
286;SDS011;127;48.770;9.212;2024-03-25T01:13:00;8.55;;;4.35;;
286;SDS011;127;48.770;9.212;2024-03-25T01:15:26;6.57;;;3.95;;
286;SDS011;127;48.770;9.212;2024-03-25T01:17:52;8.77;;;4.63;;
286;SDS011;127;48.770;9.212;2024-03-25T01:20:19;10.80;;;3.72;;
286;SDS011;127;48.770;9.212;2024-03-25T01:22:48;5.47;;;3.50;;
286;SDS011;127;48.770;9.212;2024-03-25T01:25:14;7.47;;;4.20;;
286;SDS011;127;48.770;9.212;2024-03-25T01:27:40;6.95;;;4.00;;
286;SDS011;127;48.770;9.212;2024-03-25T01:30:07;8.18;;;3.92;;
286;SDS011;127;48.770;9.212;2024-03-25T01:32:33;12.27;;;4.35;;
286;SDS011;127;48.770;9.212;2024-03-25T01:35:00;13.15;;;4.43;;
286;SDS011;127;48.770;9.212;2024-03-25T01:37:26;6.82;;;3.67;;
286;SDS011;127;48.770;9.212;2024-03-25T01:39:55;13.40;;;4.35;;
286;SDS011;127;48.770;9.212;2024-03-25T01:42:21;9.80;;;4.13;;
286;SDS011;127;48.770;9.212;2024-03-25T01:44:48;6.45;;;4.13;;
286;SDS011;127;48.770;9.212;2024-03-25T01:47:14;5.82;;;3.95;;
286;SDS011;127;48.770;9.212;2024-03-25T01:49:41;4.10;;;3.75;;
286;SDS011;127;48.770;9.212;2024-03-25T01:52:07;8.57;;;3.85;;
286;SDS011;127;48.770;9.212;2024-03-25T01:54:33;7.32;;;3.83;;
286;SDS011;127;48.770;9.212;2024-03-25T01:57:02;6.90;;;4.45;;
286;SDS011;127;48.770;9.212;2024-03-25T01:59:29;7.70;;;4.80;;
286;SDS011;127;48.770;9.212;2024-03-25T02:01:56;10.63;;;4.18;;
286;SDS011;127;48.770;9.212;2024-03-25T02:04:23;8.13;;;4.50;;
286;SDS011;127;48.770;9.212;2024-03-25T02:06:52;9.73;;;4.70;;
286;SDS011;127;48.770;9.212;2024-03-25T02:09:19;6.95;;;4.45;;
286;SDS011;127;48.770;9.212;2024-03-25T02:11:46;4.70;;;3.63;;
286;SDS011;127;48.770;9.212;2024-03-25T02:14:15;5.75;;;4.03;;
286;SDS011;127;48.770;9.212;2024-03-25T02:16:42;6.72;;;4.25;;
286;SDS011;127;48.770;9.212;2024-03-25T02:19:08;7.45;;;3.75;;
286;SDS011;127;48.770;9.212;2024-03-25T02:21:36;7.40;;;3.40;;
286;SDS011;127;48.770;9.212;2024-03-25T02:24:02;7.70;;;4.35;;
286;SDS011;127;48.770;9.212;2024-03-25T02:26:34;8.80;;;4.25;;
286;SDS011;127;48.770;9.212;2024-03-25T02:29:00;13.10;;;4.75;;
286;SDS011;127;48.770;9.212;2024-03-25T02:31:27;12.05;;;4.60;;
286;SDS011;127;48.770;9.212;2024-03-25T02:33:54;7.95;;;4.40;;
286;SDS011;127;48.770;9.212;2024-03-25T02:36:20;5.90;;;4.50;;
286;SDS011;127;48.770;9.212;2024-03-25T02:38:46;9.63;;;4.57;;
286;SDS011;127;48.770;9.212;2024-03-25T02:41:13;9.38;;;4.13;;
286;SDS011;127;48.770;9.212;2024-03-25T02:43:42;7.80;;;3.90;;
286;SDS011;127;48.770;9.212;2024-03-25T02:46:08;11.75;;;4.78;;
286;SDS011;127;48.770;9.212;2024-03-25T02:48:34;8.15;;;4.10;;
286;SDS011;127;48.770;9.212;2024-03-25T02:51:01;12.77;;;4.43;;
286;SDS011;127;48.770;9.212;2024-03-25T02:53:27;9.93;;;4.45;;
286;SDS011;127;48.770;9.212;2024-03-25T02:55:53;7.63;;;3.75;;
286;SDS011;127;48.770;9.212;2024-03-25T02:58:20;9.65;;;3.50;;
286;SDS011;127;48.770;9.212;2024-03-25T03:00:49;6.22;;;3.90;;
286;SDS011;127;48.770;9.212;2024-03-25T03:03:15;7.10;;;4.00;;
286;SDS011;127;48.770;9.212;2024-03-25T03:05:44;10.15;;;4.60;;
286;SDS011;127;48.770;9.212;2024-03-25T03:08:11;9.10;;;4.75;;
286;SDS011;127;48.770;9.212;2024-03-25T03:10:37;11.20;;;4.70;;
286;SDS011;127;48.770;9.212;2024-03-25T03:13:03;10.23;;;4.60;;
286;SDS011;127;48.770;9.212;2024-03-25T03:15:29;9.50;;;4.80;;
286;SDS011;127;48.770;9.212;2024-03-25T03:17:58;10.27;;;4.78;;
286;SDS011;127;48.770;9.212;2024-03-25T03:20:25;24.13;;;5.28;;
286;SDS011;127;48.770;9.212;2024-03-25T03:22:51;8.93;;;4.45;;
286;SDS011;127;48.770;9.212;2024-03-25T03:25:17;8.02;;;4.40;;
286;SDS011;127;48.770;9.212;2024-03-25T03:27:44;10.13;;;4.90;;
286;SDS011;127;48.770;9.212;2024-03-25T03:30:10;9.52;;;3.97;;
286;SDS011;127;48.770;9.212;2024-03-25T03:32:37;8.82;;;5.22;;
286;SDS011;127;48.770;9.212;2024-03-25T03:35:06;9.38;;;5.10;;
286;SDS011;127;48.770;9.212;2024-03-25T03:37:32;10.38;;;5.03;;
286;SDS011;127;48.770;9.212;2024-03-25T03:39:59;10.75;;;4.18;;
286;SDS011;127;48.770;9.212;2024-03-25T03:42:25;8.80;;;4.97;;
286;SDS011;127;48.770;9.212;2024-03-25T03:44:51;8.55;;;4.90;;
286;SDS011;127;48.770;9.212;2024-03-25T03:47:18;11.68;;;4.93;;
286;SDS011;127;48.770;9.212;2024-03-25T03:49:44;9.65;;;4.80;;
286;SDS011;127;48.770;9.212;2024-03-25T03:52:13;8.23;;;5.05;;
286;SDS011;127;48.770;9.212;2024-03-25T03:54:39;11.40;;;4.50;;
286;SDS011;127;48.770;9.212;2024-03-25T03:57:05;19.45;;;5.38;;
286;SDS011;127;48.770;9.212;2024-03-25T03:59:32;8.02;;;4.78;;
286;SDS011;127;48.770;9.212;2024-03-25T04:01:58;14.13;;;4.35;;
286;SDS011;127;48.770;9.212;2024-03-25T04:04:25;10.38;;;4.72;;
286;SDS011;127;48.770;9.212;2024-03-25T04:06:51;21.00;;;5.72;;
286;SDS011;127;48.770;9.212;2024-03-25T04:09:20;11.65;;;5.28;;
286;SDS011;127;48.770;9.212;2024-03-25T04:11:47;14.93;;;4.78;;
286;SDS011;127;48.770;9.212;2024-03-25T04:14:13;12.82;;;5.05;;
286;SDS011;127;48.770;9.212;2024-03-25T04:16:40;11.00;;;5.32;;
286;SDS011;127;48.770;9.212;2024-03-25T04:19:06;8.93;;;4.35;;
286;SDS011;127;48.770;9.212;2024-03-25T04:21:32;13.68;;;4.90;;
286;SDS011;127;48.770;9.212;2024-03-25T04:23:58;12.82;;;4.60;;
286;SDS011;127;48.770;9.212;2024-03-25T04:26:29;10.25;;;5.22;;
286;SDS011;127;48.770;9.212;2024-03-25T04:28:55;7.55;;;4.60;;
286;SDS011;127;48.770;9.212;2024-03-25T04:31:22;16.63;;;4.55;;
286;SDS011;127;48.770;9.212;2024-03-25T04:33:49;9.00;;;4.15;;
286;SDS011;127;48.770;9.212;2024-03-25T04:36:15;11.93;;;5.05;;
286;SDS011;127;48.770;9.212;2024-03-25T04:38:41;9.13;;;4.55;;
286;SDS011;127;48.770;9.212;2024-03-25T04:41:07;10.40;;;5.45;;
286;SDS011;127;48.770;9.212;2024-03-25T04:43:37;9.35;;;4.60;;
286;SDS011;127;48.770;9.212;2024-03-25T04:46:03;9.25;;;4.88;;
286;SDS011;127;48.770;9.212;2024-03-25T04:48:29;8.05;;;4.55;;
286;SDS011;127;48.770;9.212;2024-03-25T04:50:56;6.25;;;4.60;;
286;SDS011;127;48.770;9.212;2024-03-25T04:53:22;13.77;;;4.82;;
286;SDS011;127;48.770;9.212;2024-03-25T04:55:48;7.25;;;5.30;;
286;SDS011;127;48.770;9.212;2024-03-25T04:58:14;11.43;;;4.97;;
286;SDS011;127;48.770;9.212;2024-03-25T05:00:43;9.55;;;5.22;;
286;SDS011;127;48.770;9.212;2024-03-25T05:03:10;11.18;;;4.90;;
286;SDS011;127;48.770;9.212;2024-03-25T05:05:36;8.30;;;5.22;;
286;SDS011;127;48.770;9.212;2024-03-25T05:08:03;10.93;;;4.90;;
286;SDS011;127;48.770;9.212;2024-03-25T05:10:29;17.90;;;5.72;;
286;SDS011;127;48.770;9.212;2024-03-25T05:12:55;10.57;;;4.57;;
286;SDS011;127;48.770;9.212;2024-03-25T05:15:22;11.55;;;5.28;;
286;SDS011;127;48.770;9.212;2024-03-25T05:17:55;10.00;;;4.63;;
286;SDS011;127;48.770;9.212;2024-03-25T05:20:21;13.07;;;4.80;;
286;SDS011;127;48.770;9.212;2024-03-25T05:22:50;19.80;;;4.63;;
286;SDS011;127;48.770;9.212;2024-03-25T05:25:26;10.02;;;4.28;;
286;SDS011;127;48.770;9.212;2024-03-25T05:27:53;12.00;;;5.00;;
286;SDS011;127;48.770;9.212;2024-03-25T05:30:19;9.63;;;4.40;;
286;SDS011;127;48.770;9.212;2024-03-25T05:32:46;10.10;;;5.47;;
286;SDS011;127;48.770;9.212;2024-03-25T05:35:15;8.52;;;4.93;;
286;SDS011;127;48.770;9.212;2024-03-25T05:37:42;8.95;;;4.85;;
286;SDS011;127;48.770;9.212;2024-03-25T05:40:09;9.20;;;5.20;;
286;SDS011;127;48.770;9.212;2024-03-25T05:42:36;11.82;;;7.38;;
286;SDS011;127;48.770;9.212;2024-03-25T05:45:02;11.75;;;5.05;;
286;SDS011;127;48.770;9.212;2024-03-25T05:47:29;8.23;;;5.10;;
286;SDS011;127;48.770;9.212;2024-03-25T05:49:55;8.50;;;5.32;;
286;SDS011;127;48.770;9.212;2024-03-25T05:52:24;8.50;;;4.82;;
286;SDS011;127;48.770;9.212;2024-03-25T05:54:50;16.55;;;5.07;;
286;SDS011;127;48.770;9.212;2024-03-25T05:57:17;8.95;;;4.85;;
286;SDS011;127;48.770;9.212;2024-03-25T05:59:43;8.73;;;4.20;;
286;SDS011;127;48.770;9.212;2024-03-25T06:02:09;12.02;;;4.72;;
286;SDS011;127;48.770;9.212;2024-03-25T06:04:36;8.85;;;4.50;;
286;SDS011;127;48.770;9.212;2024-03-25T06:07:02;6.43;;;4.25;;
286;SDS011;127;48.770;9.212;2024-03-25T06:09:31;11.27;;;5.10;;
286;SDS011;127;48.770;9.212;2024-03-25T06:11:57;14.55;;;4.68;;
286;SDS011;127;48.770;9.212;2024-03-25T06:14:24;9.13;;;4.90;;
286;SDS011;127;48.770;9.212;2024-03-25T06:16:50;12.57;;;4.85;;
286;SDS011;127;48.770;9.212;2024-03-25T06:19:16;8.25;;;4.95;;
286;SDS011;127;48.770;9.212;2024-03-25T06:21:42;12.80;;;5.45;;
286;SDS011;127;48.770;9.212;2024-03-25T06:24:12;11.25;;;4.70;;
286;SDS011;127;48.770;9.212;2024-03-25T06:26:41;11.40;;;5.25;;
286;SDS011;127;48.770;9.212;2024-03-25T06:29:07;8.90;;;5.00;;
286;SDS011;127;48.770;9.212;2024-03-25T06:31:33;8.85;;;4.93;;
286;SDS011;127;48.770;9.212;2024-03-25T06:34:14;8.38;;;5.32;;
286;SDS011;127;48.770;9.212;2024-03-25T06:36:42;12.68;;;5.65;;
286;SDS011;127;48.770;9.212;2024-03-25T06:39:09;7.53;;;5.32;;
286;SDS011;127;48.770;9.212;2024-03-25T06:41:35;11.63;;;6.50;;
286;SDS011;127;48.770;9.212;2024-03-25T06:44:04;9.98;;;4.90;;
286;SDS011;127;48.770;9.212;2024-03-25T06:46:30;10.27;;;5.28;;
286;SDS011;127;48.770;9.212;2024-03-25T06:48:56;10.75;;;5.00;;
286;SDS011;127;48.770;9.212;2024-03-25T06:51:23;9.00;;;5.55;;
286;SDS011;127;48.770;9.212;2024-03-25T06:53:49;17.00;;;5.83;;
286;SDS011;127;48.770;9.212;2024-03-25T06:56:16;11.45;;;5.85;;
286;SDS011;127;48.770;9.212;2024-03-25T06:58:42;9.25;;;5.50;;
286;SDS011;127;48.770;9.212;2024-03-25T07:01:11;7.53;;;4.97;;
286;SDS011;127;48.770;9.212;2024-03-25T07:03:37;11.48;;;5.05;;
286;SDS011;127;48.770;9.212;2024-03-25T07:06:04;11.98;;;5.50;;
286;SDS011;127;48.770;9.212;2024-03-25T07:08:31;11.10;;;4.83;;
286;SDS011;127;48.770;9.212;2024-03-25T07:10:57;11.95;;;5.30;;
286;SDS011;127;48.770;9.212;2024-03-25T07:13:23;10.43;;;5.30;;
286;SDS011;127;48.770;9.212;2024-03-25T07:15:50;14.30;;;5.30;;
286;SDS011;127;48.770;9.212;2024-03-25T07:18:19;11.23;;;4.75;;
286;SDS011;127;48.770;9.212;2024-03-25T07:20:45;11.25;;;5.90;;
286;SDS011;127;48.770;9.212;2024-03-25T07:23:14;10.53;;;5.23;;
286;SDS011;127;48.770;9.212;2024-03-25T07:25:41;13.15;;;4.88;;
286;SDS011;127;48.770;9.212;2024-03-25T07:28:07;19.10;;;8.33;;
286;SDS011;127;48.770;9.212;2024-03-25T07:30:33;11.68;;;5.25;;
286;SDS011;127;48.770;9.212;2024-03-25T07:33:01;13.20;;;5.20;;
286;SDS011;127;48.770;9.212;2024-03-25T07:35:30;11.70;;;4.77;;
286;SDS011;127;48.770;9.212;2024-03-25T07:37:56;13.27;;;5.83;;
286;SDS011;127;48.770;9.212;2024-03-25T07:40:23;8.73;;;4.53;;
286;SDS011;127;48.770;9.212;2024-03-25T07:42:49;28.67;;;5.87;;
286;SDS011;127;48.770;9.212;2024-03-25T07:45:16;15.10;;;4.70;;
286;SDS011;127;48.770;9.212;2024-03-25T07:47:42;13.87;;;4.80;;
286;SDS011;127;48.770;9.212;2024-03-25T07:50:08;8.90;;;4.97;;
286;SDS011;127;48.770;9.212;2024-03-25T07:52:37;9.13;;;4.90;;
286;SDS011;127;48.770;9.212;2024-03-25T07:55:04;7.87;;;3.70;;
286;SDS011;127;48.770;9.212;2024-03-25T07:57:31;10.70;;;4.47;;
286;SDS011;127;48.770;9.212;2024-03-25T07:59:57;12.00;;;4.10;;
286;SDS011;127;48.770;9.212;2024-03-25T08:02:23;13.20;;;4.17;;
286;SDS011;127;48.770;9.212;2024-03-25T08:04:50;13.17;;;3.93;;
286;SDS011;127;48.770;9.212;2024-03-25T08:07:16;10.47;;;3.80;;
286;SDS011;127;48.770;9.212;2024-03-25T08:09:45;6.40;;;2.93;;
286;SDS011;127;48.770;9.212;2024-03-25T08:12:11;10.13;;;2.80;;
286;SDS011;127;48.770;9.212;2024-03-25T08:14:38;5.50;;;3.00;;
286;SDS011;127;48.770;9.212;2024-03-25T08:17:04;4.27;;;2.87;;
286;SDS011;127;48.770;9.212;2024-03-25T08:19:30;21.83;;;3.80;;
286;SDS011;127;48.770;9.212;2024-03-25T08:21:56;13.93;;;3.67;;
286;SDS011;127;48.770;9.212;2024-03-25T08:24:23;8.20;;;3.20;;
286;SDS011;127;48.770;9.212;2024-03-25T08:27:01;12.27;;;3.63;;
286;SDS011;127;48.770;9.212;2024-03-25T08:29:28;15.00;;;4.30;;
286;SDS011;127;48.770;9.212;2024-03-25T08:31:54;4.87;;;2.80;;
286;SDS011;127;48.770;9.212;2024-03-25T08:34:20;5.93;;;2.93;;
286;SDS011;127;48.770;9.212;2024-03-25T08:36:46;4.80;;;2.40;;
286;SDS011;127;48.770;9.212;2024-03-25T08:39:13;4.77;;;2.53;;
286;SDS011;127;48.770;9.212;2024-03-25T08:41:39;4.80;;;2.40;;
286;SDS011;127;48.770;9.212;2024-03-25T08:44:08;3.90;;;2.43;;
286;SDS011;127;48.770;9.212;2024-03-25T08:46:34;7.40;;;2.53;;
286;SDS011;127;48.770;9.212;2024-03-25T08:49:00;6.13;;;2.87;;
286;SDS011;127;48.770;9.212;2024-03-25T08:51:27;5.33;;;3.60;;
286;SDS011;127;48.770;9.212;2024-03-25T08:53:53;8.20;;;3.00;;
286;SDS011;127;48.770;9.212;2024-03-25T08:56:19;13.23;;;3.40;;
286;SDS011;127;48.770;9.212;2024-03-25T08:58:46;10.33;;;3.20;;
286;SDS011;127;48.770;9.212;2024-03-25T09:01:15;8.20;;;2.93;;
286;SDS011;127;48.770;9.212;2024-03-25T09:03:41;4.57;;;2.50;;
286;SDS011;127;48.770;9.212;2024-03-25T09:06:07;6.13;;;2.47;;
286;SDS011;127;48.770;9.212;2024-03-25T09:08:33;8.40;;;2.80;;
286;SDS011;127;48.770;9.212;2024-03-25T09:11:00;4.90;;;2.20;;
286;SDS011;127;48.770;9.212;2024-03-25T09:13:29;5.10;;;2.33;;
286;SDS011;127;48.770;9.212;2024-03-25T09:15:56;3.70;;;2.13;;
286;SDS011;127;48.770;9.212;2024-03-25T09:18:25;7.60;;;2.53;;
286;SDS011;127;48.770;9.212;2024-03-25T09:20:51;7.13;;;2.30;;
286;SDS011;127;48.770;9.212;2024-03-25T09:23:17;5.60;;;1.93;;
286;SDS011;127;48.770;9.212;2024-03-25T09:25:53;6.30;;;2.40;;
286;SDS011;127;48.770;9.212;2024-03-25T09:28:19;8.13;;;2.00;;
286;SDS011;127;48.770;9.212;2024-03-25T09:30:45;3.40;;;1.83;;
286;SDS011;127;48.770;9.212;2024-03-25T09:33:13;2.57;;;1.63;;
286;SDS011;127;48.770;9.212;2024-03-25T09:35:42;3.60;;;1.60;;
286;SDS011;127;48.770;9.212;2024-03-25T09:38:09;5.63;;;2.17;;
286;SDS011;127;48.770;9.212;2024-03-25T09:40:35;2.30;;;1.50;;
286;SDS011;127;48.770;9.212;2024-03-25T09:43:02;7.23;;;1.97;;
286;SDS011;127;48.770;9.212;2024-03-25T09:45:29;6.20;;;1.67;;
286;SDS011;127;48.770;9.212;2024-03-25T09:47:56;2.97;;;1.77;;
286;SDS011;127;48.770;9.212;2024-03-25T09:50:24;7.60;;;2.57;;
286;SDS011;127;48.770;9.212;2024-03-25T09:52:53;2.93;;;1.67;;
286;SDS011;127;48.770;9.212;2024-03-25T09:55:19;4.30;;;1.70;;
286;SDS011;127;48.770;9.212;2024-03-25T09:57:46;6.77;;;2.23;;
286;SDS011;127;48.770;9.212;2024-03-25T10:00:12;5.73;;;1.77;;
286;SDS011;127;48.770;9.212;2024-03-25T10:02:40;9.50;;;2.50;;
286;SDS011;127;48.770;9.212;2024-03-25T10:05:07;7.00;;;2.40;;
286;SDS011;127;48.770;9.212;2024-03-25T10:07:33;5.43;;;2.00;;
286;SDS011;127;48.770;9.212;2024-03-25T10:10:02;4.63;;;2.30;;
286;SDS011;127;48.770;9.212;2024-03-25T10:12:29;6.10;;;2.53;;
286;SDS011;127;48.770;9.212;2024-03-25T10:14:55;4.60;;;2.57;;
286;SDS011;127;48.770;9.212;2024-03-25T10:17:24;5.20;;;2.27;;
286;SDS011;127;48.770;9.212;2024-03-25T10:19:53;5.77;;;2.27;;
286;SDS011;127;48.770;9.212;2024-03-25T10:22:19;10.70;;;2.93;;
286;SDS011;127;48.770;9.212;2024-03-25T10:24:45;7.70;;;2.90;;
286;SDS011;127;48.770;9.212;2024-03-25T10:27:19;6.20;;;3.23;;
286;SDS011;127;48.770;9.212;2024-03-25T10:29:46;14.20;;;2.90;;
286;SDS011;127;48.770;9.212;2024-03-25T10:32:12;7.87;;;3.27;;
286;SDS011;127;48.770;9.212;2024-03-25T10:34:39;5.83;;;2.60;;
286;SDS011;127;48.770;9.212;2024-03-25T10:37:05;4.87;;;2.80;;
286;SDS011;127;48.770;9.212;2024-03-25T10:39:35;4.03;;;2.40;;
286;SDS011;127;48.770;9.212;2024-03-25T10:42:05;9.93;;;3.40;;
286;SDS011;127;48.770;9.212;2024-03-25T10:44:34;7.80;;;3.00;;
286;SDS011;127;48.770;9.212;2024-03-25T10:47:01;3.77;;;2.70;;
286;SDS011;127;48.770;9.212;2024-03-25T10:49:32;4.80;;;2.50;;
286;SDS011;127;48.770;9.212;2024-03-25T10:51:59;4.07;;;3.00;;
286;SDS011;127;48.770;9.212;2024-03-25T10:54:26;8.57;;;3.00;;
286;SDS011;127;48.770;9.212;2024-03-25T10:56:53;9.17;;;2.67;;
286;SDS011;127;48.770;9.212;2024-03-25T10:59:19;6.77;;;2.90;;
286;SDS011;127;48.770;9.212;2024-03-25T11:01:48;6.97;;;2.80;;
286;SDS011;127;48.770;9.212;2024-03-25T11:04:15;5.57;;;2.90;;
286;SDS011;127;48.770;9.212;2024-03-25T11:12:41;5.23;;;2.87;;
286;SDS011;127;48.770;9.212;2024-03-25T11:15:08;7.03;;;2.33;;
286;SDS011;127;48.770;9.212;2024-03-25T11:17:47;7.00;;;2.87;;
286;SDS011;127;48.770;9.212;2024-03-25T11:21:07;6.20;;;2.70;;
286;SDS011;127;48.770;9.212;2024-03-25T11:30:09;13.73;;;6.60;;
286;SDS011;127;48.770;9.212;2024-03-25T11:48:04;9.03;;;2.00;;
286;SDS011;127;48.770;9.212;2024-03-25T11:56:53;6.07;;;2.50;;
286;SDS011;127;48.770;9.212;2024-03-25T11:59:19;6.10;;;2.70;;
286;SDS011;127;48.770;9.212;2024-03-25T12:01:45;4.70;;;2.47;;
286;SDS011;127;48.770;9.212;2024-03-25T12:04:12;4.57;;;2.17;;
286;SDS011;127;48.770;9.212;2024-03-25T12:06:38;5.80;;;2.80;;
286;SDS011;127;48.770;9.212;2024-03-25T12:09:04;5.27;;;2.73;;
286;SDS011;127;48.770;9.212;2024-03-25T12:11:46;4.90;;;2.60;;
286;SDS011;127;48.770;9.212;2024-03-25T12:14:15;6.50;;;2.40;;
286;SDS011;127;48.770;9.212;2024-03-25T12:16:41;8.83;;;2.90;;
286;SDS011;127;48.770;9.212;2024-03-25T12:19:07;4.80;;;2.33;;
286;SDS011;127;48.770;9.212;2024-03-25T12:21:34;3.80;;;2.20;;
286;SDS011;127;48.770;9.212;2024-03-25T12:24:00;3.67;;;2.50;;
286;SDS011;127;48.770;9.212;2024-03-25T12:26:26;4.30;;;2.60;;
286;SDS011;127;48.770;9.212;2024-03-25T12:28:53;3.87;;;2.60;;
286;SDS011;127;48.770;9.212;2024-03-25T12:31:23;3.70;;;2.57;;
286;SDS011;127;48.770;9.212;2024-03-25T12:33:49;3.47;;;1.83;;
286;SDS011;127;48.770;9.212;2024-03-25T12:36:15;4.27;;;2.83;;
286;SDS011;127;48.770;9.212;2024-03-25T12:38:42;4.53;;;2.43;;
286;SDS011;127;48.770;9.212;2024-03-25T12:41:08;4.60;;;3.00;;
286;SDS011;127;48.770;9.212;2024-03-25T12:43:35;3.20;;;2.97;;
286;SDS011;127;48.770;9.212;2024-03-25T12:46:02;4.67;;;2.40;;
286;SDS011;127;48.770;9.212;2024-03-25T12:48:31;6.73;;;2.40;;
286;SDS011;127;48.770;9.212;2024-03-25T12:50:57;4.63;;;2.90;;
286;SDS011;127;48.770;9.212;2024-03-25T12:53:24;5.60;;;2.53;;
286;SDS011;127;48.770;9.212;2024-03-25T12:55:50;7.50;;;3.50;;
286;SDS011;127;48.770;9.212;2024-03-25T12:58:16;6.13;;;2.73;;
286;SDS011;127;48.770;9.212;2024-03-25T13:00:42;8.67;;;3.30;;
286;SDS011;127;48.770;9.212;2024-03-25T13:03:09;4.40;;;3.17;;
286;SDS011;127;48.770;9.212;2024-03-25T13:05:37;5.37;;;3.10;;
286;SDS011;127;48.770;9.212;2024-03-25T13:08:04;4.63;;;2.53;;
286;SDS011;127;48.770;9.212;2024-03-25T13:10:31;3.37;;;2.50;;
286;SDS011;127;48.770;9.212;2024-03-25T13:12:57;2.80;;;2.30;;
286;SDS011;127;48.770;9.212;2024-03-25T13:15:23;3.80;;;3.00;;
286;SDS011;127;48.770;9.212;2024-03-25T13:17:50;4.83;;;2.73;;
286;SDS011;127;48.770;9.212;2024-03-25T13:20:16;4.60;;;2.60;;
286;SDS011;127;48.770;9.212;2024-03-25T13:22:45;4.00;;;2.43;;
286;SDS011;127;48.770;9.212;2024-03-25T13:25:11;4.83;;;2.60;;
286;SDS011;127;48.770;9.212;2024-03-25T13:27:38;5.63;;;2.73;;
286;SDS011;127;48.770;9.212;2024-03-25T13:30:05;4.20;;;2.43;;
286;SDS011;127;48.770;9.212;2024-03-25T13:32:31;7.60;;;3.30;;
286;SDS011;127;48.770;9.212;2024-03-25T13:34:57;5.23;;;2.60;;
286;SDS011;127;48.770;9.212;2024-03-25T13:37:24;5.40;;;2.60;;
286;SDS011;127;48.770;9.212;2024-03-25T13:39:52;4.57;;;2.20;;
286;SDS011;127;48.770;9.212;2024-03-25T13:42:19;3.90;;;2.50;;
286;SDS011;127;48.770;9.212;2024-03-25T13:44:45;4.23;;;2.30;;
286;SDS011;127;48.770;9.212;2024-03-25T13:47:11;3.40;;;2.50;;
286;SDS011;127;48.770;9.212;2024-03-25T13:49:38;7.50;;;2.77;;
286;SDS011;127;48.770;9.212;2024-03-25T13:52:04;3.90;;;2.27;;
286;SDS011;127;48.770;9.212;2024-03-25T13:54:30;8.60;;;3.30;;
286;SDS011;127;48.770;9.212;2024-03-25T13:56:59;4.23;;;2.57;;
286;SDS011;127;48.770;9.212;2024-03-25T13:59:26;3.80;;;2.30;;
286;SDS011;127;48.770;9.212;2024-03-25T14:01:52;4.33;;;2.90;;
286;SDS011;127;48.770;9.212;2024-03-25T14:04:18;4.97;;;2.70;;
286;SDS011;127;48.770;9.212;2024-03-25T14:06:44;4.03;;;2.50;;
286;SDS011;127;48.770;9.212;2024-03-25T14:09:13;7.13;;;2.80;;
286;SDS011;127;48.770;9.212;2024-03-25T14:11:48;3.80;;;2.17;;
286;SDS011;127;48.770;9.212;2024-03-25T14:14:17;3.63;;;2.20;;
286;SDS011;127;48.770;9.212;2024-03-25T14:16:43;5.40;;;2.47;;
286;SDS011;127;48.770;9.212;2024-03-25T14:19:10;2.83;;;2.30;;
286;SDS011;127;48.770;9.212;2024-03-25T14:21:36;3.57;;;2.50;;
286;SDS011;127;48.770;9.212;2024-03-25T14:24:04;5.37;;;2.23;;
286;SDS011;127;48.770;9.212;2024-03-25T14:26:30;5.13;;;2.50;;
286;SDS011;127;48.770;9.212;2024-03-25T14:28:56;4.10;;;2.37;;
286;SDS011;127;48.770;9.212;2024-03-25T14:31:25;7.53;;;2.60;;
286;SDS011;127;48.770;9.212;2024-03-25T14:33:52;4.00;;;2.60;;
286;SDS011;127;48.770;9.212;2024-03-25T14:36:18;3.77;;;2.07;;
286;SDS011;127;48.770;9.212;2024-03-25T14:38:44;7.30;;;2.30;;
286;SDS011;127;48.770;9.212;2024-03-25T14:41:11;3.70;;;2.50;;
286;SDS011;127;48.770;9.212;2024-03-25T14:43:37;3.43;;;2.30;;
286;SDS011;127;48.770;9.212;2024-03-25T14:46:03;4.37;;;2.60;;
286;SDS011;127;48.770;9.212;2024-03-25T14:48:32;4.13;;;2.17;;
286;SDS011;127;48.770;9.212;2024-03-25T14:50:58;5.83;;;2.33;;
286;SDS011;127;48.770;9.212;2024-03-25T14:53:25;4.23;;;2.30;;
286;SDS011;127;48.770;9.212;2024-03-25T14:55:51;5.13;;;2.10;;
286;SDS011;127;48.770;9.212;2024-03-25T14:58:17;4.43;;;2.30;;
286;SDS011;127;48.770;9.212;2024-03-25T15:00:43;4.03;;;2.00;;
286;SDS011;127;48.770;9.212;2024-03-25T15:03:10;3.33;;;2.07;;
286;SDS011;127;48.770;9.212;2024-03-25T15:05:39;2.60;;;2.27;;
286;SDS011;127;48.770;9.212;2024-03-25T15:08:05;4.70;;;2.50;;
286;SDS011;127;48.770;9.212;2024-03-25T15:10:33;4.23;;;2.03;;
286;SDS011;127;48.770;9.212;2024-03-25T15:12:59;6.17;;;2.47;;
286;SDS011;127;48.770;9.212;2024-03-25T15:15:25;4.23;;;2.20;;
286;SDS011;127;48.770;9.212;2024-03-25T15:17:52;4.57;;;2.27;;
286;SDS011;127;48.770;9.212;2024-03-25T15:20:18;5.80;;;2.30;;
286;SDS011;127;48.770;9.212;2024-03-25T15:22:47;6.40;;;2.40;;
286;SDS011;127;48.770;9.212;2024-03-25T15:25:13;4.70;;;2.63;;
286;SDS011;127;48.770;9.212;2024-03-25T15:27:39;2.57;;;2.20;;
286;SDS011;127;48.770;9.212;2024-03-25T15:30:06;3.40;;;1.90;;
286;SDS011;127;48.770;9.212;2024-03-25T15:32:33;3.73;;;2.23;;
286;SDS011;127;48.770;9.212;2024-03-25T15:34:59;3.03;;;2.10;;
286;SDS011;127;48.770;9.212;2024-03-25T15:37:25;7.20;;;3.00;;
286;SDS011;127;48.770;9.212;2024-03-25T15:39:54;4.67;;;2.20;;
286;SDS011;127;48.770;9.212;2024-03-25T15:42:20;3.00;;;2.27;;
286;SDS011;127;48.770;9.212;2024-03-25T15:44:49;3.07;;;2.17;;
286;SDS011;127;48.770;9.212;2024-03-25T15:47:15;5.17;;;2.50;;
286;SDS011;127;48.770;9.212;2024-03-25T15:49:43;4.93;;;2.00;;
286;SDS011;127;48.770;9.212;2024-03-25T15:52:11;3.50;;;1.83;;
286;SDS011;127;48.770;9.212;2024-03-25T15:54:37;4.87;;;2.30;;
286;SDS011;127;48.770;9.212;2024-03-25T15:57:06;3.00;;;2.37;;
286;SDS011;127;48.770;9.212;2024-03-25T15:59:33;3.53;;;2.20;;
286;SDS011;127;48.770;9.212;2024-03-25T16:01:59;4.73;;;2.20;;
286;SDS011;127;48.770;9.212;2024-03-25T16:04:25;7.87;;;2.10;;
286;SDS011;127;48.770;9.212;2024-03-25T16:06:51;2.30;;;1.90;;
286;SDS011;127;48.770;9.212;2024-03-25T16:09:18;3.73;;;2.27;;
286;SDS011;127;48.770;9.212;2024-03-25T16:11:44;3.80;;;2.27;;
286;SDS011;127;48.770;9.212;2024-03-25T16:14:13;4.27;;;1.90;;
286;SDS011;127;48.770;9.212;2024-03-25T16:16:41;3.53;;;2.27;;